createdAt,value
2019-04-14T00:01:56.677Z,43.13
2019-04-14T00:04:33.728Z,46.00
2019-04-14T00:07:03.596Z,43.77
2019-04-14T00:09:33.639Z,46.73
2019-04-14T00:12:05.845Z,42.57
2019-04-14T00:14:33.672Z,42.60
2019-04-14T00:17:02.491Z,44.70
2019-04-14T00:19:31.184Z,46.80
2019-04-14T00:22:03.243Z,44.97
2019-04-14T00:24:33.483Z,44.60
2019-04-14T00:27:02.684Z,44.90
2019-04-14T00:29:31.347Z,47.83
2019-04-14T00:32:00.905Z,45.10
2019-04-14T00:34:47.052Z,41.07
2019-04-14T00:37:27.354Z,36.67
2019-04-14T00:39:59.868Z,39.47
2019-04-14T00:42:56.423Z,40.37
2019-04-14T00:45:46.436Z,38.17
2019-04-14T00:48:15.908Z,37.83
2019-04-14T00:50:43.170Z,40.50
2019-04-14T00:53:12.208Z,41.13
2019-04-14T00:55:42.115Z,40.80
2019-04-14T00:58:10.851Z,39.67
2019-04-14T01:00:40.752Z,37.77
2019-04-14T01:03:09.248Z,37.90
2019-04-14T01:05:37.908Z,38.33
2019-04-14T01:08:07.403Z,39.80
2019-04-14T01:10:36.785Z,40.80
2019-04-14T01:13:08.447Z,39.63
2019-04-14T01:15:49.770Z,41.70
2019-04-14T01:18:06.349Z,40.20
2019-04-14T01:20:36.304Z,42.77
2019-04-14T01:23:06.230Z,40.10
2019-04-14T01:25:34.983Z,35.37
2019-04-14T01:28:04.676Z,40.20
2019-04-14T01:30:33.493Z,42.03
2019-04-14T01:33:03.248Z,39.30
2019-04-14T01:35:32.132Z,40.97
2019-04-14T01:38:01.637Z,43.53
2019-04-14T01:40:31.450Z,43.13
2019-04-14T01:43:01.578Z,38.87
2019-04-14T01:45:31.649Z,38.30
2019-04-14T01:48:01.508Z,37.97
2019-04-14T01:50:36.709Z,42.60
2019-04-14T01:53:14.228Z,42.00
2019-04-14T01:56:01.317Z,40.10
2019-04-14T01:58:36.107Z,41.63
2019-04-14T02:01:10.779Z,42.50
2019-04-14T02:03:39.447Z,43.10
2019-04-14T02:06:09.268Z,40.43
2019-04-14T02:08:37.688Z,42.40
2019-04-14T02:11:07.354Z,45.27
2019-04-14T02:13:37.462Z,43.50
2019-04-14T02:16:18.831Z,44.80
2019-04-14T02:18:36.722Z,45.87
2019-04-14T02:21:06.456Z,43.47
2019-04-14T02:23:36.470Z,43.60
2019-04-14T02:26:05.281Z,44.37
2019-04-14T02:28:35.283Z,38.50
2019-04-14T02:31:18.016Z,40.30
2019-04-14T02:34:07.328Z,45.27
2019-04-14T02:36:35.090Z,41.90
2019-04-14T02:44:04.979Z,46.90
2019-04-14T02:46:39.971Z,42.17
2019-04-14T02:54:05.025Z,43.10
2019-04-14T03:04:04.134Z,46.17
2019-04-14T03:06:33.577Z,45.77
2019-04-14T03:09:13.651Z,46.83
2019-04-14T03:11:43.873Z,48.57
2019-04-14T03:14:06.303Z,41.43
2019-04-14T03:17:11.122Z,47.40
2019-04-14T03:25:11.486Z,45.37
2019-04-14T03:27:54.735Z,48.10
2019-04-14T03:40:50.717Z,42.80
2019-04-14T03:43:11.285Z,46.97
2019-04-14T03:48:33.800Z,46.07
2019-04-14T03:50:37.808Z,44.50
2019-04-14T03:55:54.374Z,42.63
2019-04-14T03:58:20.520Z,47.00
2019-04-14T04:00:49.448Z,45.73
2019-04-14T04:03:18.136Z,47.47
2019-04-14T04:05:48.255Z,45.23
2019-04-14T04:08:17.943Z,38.07
2019-04-14T04:10:46.804Z,44.53
2019-04-14T04:13:17.188Z,47.50
2019-04-14T04:15:46.109Z,47.20
2019-04-14T04:18:19.897Z,45.00
2019-04-14T04:21:05.246Z,42.30
2019-04-14T04:23:40.297Z,43.87
2019-04-14T04:26:27.895Z,38.70
2019-04-14T04:29:20.605Z,43.23
2019-04-14T04:32:07.829Z,45.10
2019-04-14T04:34:45.207Z,46.17
2019-04-14T04:37:45.781Z,45.00
2019-04-14T04:40:20.076Z,46.40
2019-04-14T04:42:48.868Z,45.47
2019-04-14T04:45:17.556Z,47.90
2019-04-14T04:47:47.010Z,43.83
2019-04-14T04:50:15.435Z,40.30
2019-04-14T04:52:45.095Z,46.83
2019-04-14T04:55:13.817Z,45.27
2019-04-14T04:57:42.475Z,44.63
2019-04-14T05:00:11.637Z,45.33
2019-04-14T05:02:40.306Z,46.63
2019-04-14T05:05:45.311Z,46.80
2019-04-14T05:08:15.096Z,42.63
2019-04-14T05:10:52.611Z,45.53
2019-04-14T05:13:25.638Z,45.17
2019-04-14T05:15:59.819Z,43.17
2019-04-14T05:18:29.017Z,45.83
2019-04-14T05:20:57.804Z,49.83
2019-04-14T05:23:27.680Z,46.87
2019-04-14T05:25:56.527Z,46.67
2019-04-14T05:28:26.575Z,46.80
2019-04-14T05:30:56.765Z,45.23
2019-04-14T05:33:25.636Z,42.97
2019-04-14T05:35:55.665Z,37.10
2019-04-14T05:38:23.931Z,38.63
2019-04-14T05:40:53.908Z,42.43
2019-04-14T05:43:30.367Z,41.37
2019-04-14T05:45:54.394Z,40.30
2019-04-14T05:48:23.308Z,42.60
2019-04-14T05:50:53.314Z,36.43
2019-04-14T05:53:22.192Z,41.00
2019-04-14T05:55:50.859Z,38.33
2019-04-14T05:58:20.678Z,32.00
2019-04-14T06:00:50.553Z,35.60
2019-04-14T06:03:19.729Z,35.30
2019-04-14T06:05:49.430Z,36.23
2019-04-14T06:08:18.133Z,35.27
2019-04-14T06:10:46.774Z,35.67
2019-04-14T06:13:15.584Z,35.83
2019-04-14T06:15:44.289Z,35.63
2019-04-14T06:18:15.015Z,33.63
2019-04-14T06:20:43.700Z,30.10
2019-04-14T06:23:12.049Z,33.50
2019-04-14T06:25:40.744Z,35.10
2019-04-14T06:28:09.500Z,32.83
2019-04-14T06:30:57.209Z,35.87
2019-04-14T06:33:32.624Z,35.33
2019-04-14T06:36:17.808Z,32.80
2019-04-14T06:38:48.539Z,31.20
2019-04-14T06:41:19.066Z,31.37
2019-04-14T06:43:49.070Z,31.17
2019-04-14T06:46:17.651Z,28.17
2019-04-14T06:48:46.385Z,34.47
2019-04-14T06:51:15.021Z,31.37
2019-04-14T06:53:43.672Z,32.40
2019-04-14T06:56:12.374Z,33.07
2019-04-14T06:58:41.147Z,32.23
2019-04-14T07:01:09.876Z,33.00
2019-04-14T07:03:38.916Z,30.73
2019-04-14T07:06:07.636Z,28.90
2019-04-14T07:08:35.969Z,27.90
2019-04-14T07:11:04.884Z,31.60
2019-04-14T07:13:33.615Z,28.90
2019-04-14T07:16:02.350Z,31.37
2019-04-14T07:18:31.341Z,30.53
2019-04-14T07:21:00.081Z,29.90
2019-04-14T07:23:28.759Z,32.60
2019-04-14T07:25:57.574Z,28.87
2019-04-14T07:28:26.630Z,27.30
2019-04-14T07:31:26.564Z,28.00
2019-04-14T07:34:25.983Z,32.60
2019-04-14T07:37:13.700Z,31.20
2019-04-14T07:40:14.867Z,30.33
2019-04-14T07:43:05.365Z,31.80
2019-04-14T07:45:51.960Z,33.47
2019-04-14T07:48:30.860Z,31.67
2019-04-14T07:51:15.964Z,30.30
2019-04-14T07:53:50.382Z,32.17
2019-04-14T07:56:46.957Z,31.50
2019-04-14T07:59:34.671Z,27.93
2019-04-14T08:02:09.213Z,29.90
2019-04-14T08:04:42.056Z,32.13
2019-04-14T08:07:10.707Z,33.80
2019-04-14T08:09:39.411Z,33.13
2019-04-14T08:12:08.557Z,32.40
2019-04-14T08:14:37.233Z,33.47
2019-04-14T08:17:05.939Z,31.37
2019-04-14T08:19:35.003Z,31.73
2019-04-14T08:22:03.499Z,29.80
2019-04-14T08:24:32.243Z,34.37
2019-04-14T08:27:00.956Z,32.10
2019-04-14T08:29:29.620Z,32.87
2019-04-14T08:31:58.276Z,32.00
2019-04-14T08:34:26.979Z,30.87
2019-04-14T08:36:55.975Z,34.37
2019-04-14T08:39:24.753Z,33.80
2019-04-14T08:42:11.516Z,29.40
2019-04-14T08:44:44.998Z,29.67
2019-04-14T08:47:24.856Z,31.67
2019-04-14T08:49:59.977Z,32.00
2019-04-14T08:52:32.046Z,32.37
2019-04-14T08:55:18.743Z,32.90
2019-04-14T08:57:57.395Z,33.30
2019-04-14T09:00:44.202Z,32.83
2019-04-14T09:03:47.585Z,32.37
2019-04-14T09:06:20.593Z,33.70
2019-04-14T09:09:11.672Z,29.07
2019-04-14T09:11:45.055Z,29.20
2019-04-14T09:14:13.770Z,32.20
2019-04-14T09:16:42.768Z,32.00
2019-04-14T09:19:12.462Z,33.10
2019-04-14T09:21:41.169Z,30.50
2019-04-14T09:24:09.844Z,32.43
2019-04-14T09:26:38.567Z,30.20
2019-04-14T09:29:07.237Z,32.00
2019-04-14T09:31:35.910Z,30.63
2019-04-14T09:34:04.225Z,27.40
2019-04-14T09:36:32.904Z,31.17
2019-04-14T09:39:01.576Z,29.90
2019-04-14T09:41:30.309Z,31.43
2019-04-14T09:43:58.967Z,30.20
2019-04-14T09:46:27.670Z,28.50
2019-04-14T09:48:56.361Z,27.83
2019-04-14T09:51:25.096Z,29.17
2019-04-14T09:53:53.755Z,23.10
2019-04-14T09:56:22.083Z,27.97
2019-04-14T09:58:50.802Z,27.50
2019-04-14T10:01:19.886Z,25.60
2019-04-14T10:03:48.630Z,25.53
2019-04-14T10:06:17.283Z,25.20
2019-04-14T10:08:45.999Z,24.60
2019-04-14T10:11:14.298Z,25.73
2019-04-14T10:13:42.963Z,24.80
2019-04-14T10:16:11.259Z,23.30
2019-04-14T10:18:39.928Z,24.87
2019-04-14T10:21:17.327Z,25.23
2019-04-14T10:23:39.630Z,24.70
2019-04-14T10:26:08.388Z,22.63
2019-04-14T10:28:37.439Z,23.33
2019-04-14T10:31:06.097Z,24.87
2019-04-14T10:33:34.755Z,22.47
2019-04-14T10:36:03.417Z,24.67
2019-04-14T10:38:32.116Z,20.70
2019-04-14T10:41:00.883Z,25.40
2019-04-14T10:43:29.657Z,24.97
2019-04-14T10:45:58.457Z,25.53
2019-04-14T10:48:26.840Z,25.53
2019-04-14T10:50:56.172Z,22.57
2019-04-14T10:53:24.953Z,26.30
2019-04-14T10:55:53.679Z,23.73
2019-04-14T10:58:22.482Z,22.17
2019-04-14T11:00:50.851Z,24.10
2019-04-14T11:03:19.506Z,23.93
2019-04-14T11:05:55.612Z,25.07
2019-04-14T11:08:24.415Z,19.90
2019-04-14T11:10:53.127Z,24.97
2019-04-14T11:13:21.831Z,24.03
2019-04-14T11:15:50.505Z,25.50
2019-04-14T11:18:19.168Z,18.63
2019-04-14T11:20:47.553Z,23.40
2019-04-14T11:23:16.447Z,25.20
2019-04-14T11:25:45.203Z,24.73
2019-04-14T11:28:13.988Z,24.27
2019-04-14T11:30:42.731Z,23.60
2019-04-14T11:33:16.484Z,22.90
2019-04-14T11:36:01.885Z,24.67
2019-04-14T11:38:44.637Z,21.50
2019-04-14T11:41:16.612Z,23.27
2019-04-14T11:43:45.262Z,24.63
2019-04-14T11:46:14.059Z,24.70
2019-04-14T11:48:42.785Z,22.80
2019-04-14T11:51:11.540Z,23.43
2019-04-14T11:53:40.197Z,22.30
2019-04-14T11:56:09.173Z,23.70
2019-04-14T11:58:37.838Z,23.67
2019-04-14T12:01:24.749Z,22.77
2019-04-14T12:04:01.428Z,22.70
2019-04-14T12:07:01.128Z,23.80
2019-04-14T12:09:32.840Z,24.67
2019-04-14T12:12:01.184Z,23.27
2019-04-14T12:14:30.248Z,24.00
2019-04-14T12:16:59.025Z,22.90
2019-04-14T12:19:27.744Z,21.33
2019-04-14T12:22:07.778Z,22.87
2019-04-14T12:24:26.567Z,20.20
2019-04-14T12:26:54.867Z,23.73
2019-04-14T12:29:23.688Z,22.27
2019-04-14T12:31:53.100Z,23.23
2019-04-14T12:34:21.812Z,24.33
2019-04-14T12:36:50.476Z,23.63
2019-04-14T12:39:22.292Z,23.93
2019-04-14T12:41:59.914Z,25.13
2019-04-14T12:44:46.355Z,24.10
2019-04-14T12:47:39.690Z,22.60
2019-04-14T12:50:05.160Z,23.37
2019-04-14T12:52:34.276Z,24.53
2019-04-14T12:55:03.067Z,23.30
2019-04-14T12:57:39.552Z,23.53
2019-04-14T13:00:15.292Z,21.93
2019-04-14T13:02:47.057Z,22.97
2019-04-14T13:05:15.760Z,24.07
2019-04-14T13:07:44.152Z,22.00
2019-04-14T13:10:12.975Z,23.40
2019-04-14T13:12:42.257Z,23.47
2019-04-14T13:15:12.679Z,22.87
2019-04-14T13:17:41.564Z,24.23
2019-04-14T13:20:10.360Z,24.30
2019-04-14T13:22:39.098Z,23.37
2019-04-14T13:25:07.859Z,25.33
2019-04-14T13:27:37.074Z,23.07
2019-04-14T13:30:05.820Z,22.47
2019-04-14T13:32:36.439Z,23.93
2019-04-14T13:35:05.695Z,22.83
2019-04-14T13:37:34.655Z,24.10
2019-04-14T13:40:03.675Z,23.93
2019-04-14T13:42:36.932Z,23.83
2019-04-14T13:45:05.753Z,24.67
2019-04-14T13:47:34.797Z,24.23
2019-04-14T13:50:03.937Z,22.30
2019-04-14T13:52:32.336Z,20.70
2019-04-14T13:55:01.078Z,23.87
2019-04-14T13:57:29.808Z,22.57
2019-04-14T13:59:58.081Z,23.20
2019-04-14T14:02:26.868Z,22.37
2019-04-14T14:04:55.597Z,23.47
2019-04-14T14:07:24.309Z,22.57
2019-04-14T14:09:56.941Z,22.73
2019-04-14T14:12:52.599Z,22.87
2019-04-14T14:15:40.560Z,22.03
2019-04-14T14:18:31.134Z,25.00
2019-04-14T14:21:17.585Z,24.33
2019-04-14T14:23:58.716Z,25.33
2019-04-14T14:26:28.268Z,24.90
2019-04-14T14:28:57.051Z,23.60
2019-04-14T14:31:28.843Z,25.50
2019-04-14T14:33:57.615Z,24.90
2019-04-14T14:36:26.401Z,25.20
2019-04-14T14:38:55.079Z,22.80
2019-04-14T14:41:23.414Z,23.47
2019-04-14T14:43:52.151Z,25.77
2019-04-14T14:46:32.153Z,25.33
2019-04-14T14:49:08.822Z,23.80
2019-04-14T14:51:48.210Z,25.63
2019-04-14T14:54:16.933Z,25.43
2019-04-14T14:56:45.980Z,25.87
2019-04-14T14:59:14.683Z,25.23
2019-04-14T15:01:43.501Z,23.70
2019-04-14T15:04:11.792Z,25.13
2019-04-14T15:06:40.551Z,26.30
2019-04-14T15:09:09.244Z,27.10
2019-04-14T15:11:37.894Z,27.70
2019-04-14T15:14:07.613Z,25.17
2019-04-14T15:16:36.398Z,26.77
2019-04-14T15:19:05.053Z,26.97
2019-04-14T15:21:34.004Z,25.97
2019-04-14T15:24:02.712Z,22.03
2019-04-14T15:26:31.084Z,24.47
2019-04-14T15:28:59.780Z,26.23
2019-04-14T15:31:28.431Z,26.83
2019-04-14T15:33:57.212Z,26.03
2019-04-14T15:36:26.127Z,25.60
2019-04-14T15:38:54.857Z,29.73
2019-04-14T15:41:23.919Z,30.80
2019-04-14T15:43:52.601Z,29.60
2019-04-14T15:46:20.979Z,30.90
2019-04-14T15:48:49.629Z,33.87
2019-04-14T15:51:18.287Z,27.63
2019-04-14T15:53:46.983Z,27.20
2019-04-14T15:56:26.190Z,27.53
2019-04-14T15:59:09.177Z,26.70
2019-04-14T16:02:03.824Z,26.03
2019-04-14T16:04:47.380Z,26.63
2019-04-14T16:07:35.736Z,27.40
2019-04-14T16:10:25.800Z,28.37
2019-04-14T16:13:19.788Z,35.93
2019-04-14T16:16:07.528Z,27.43
2019-04-14T16:18:53.839Z,27.83
2019-04-14T16:21:22.553Z,27.10
2019-04-14T16:23:51.310Z,25.43
2019-04-14T16:26:28.232Z,27.00
2019-04-14T16:29:16.544Z,26.50
2019-04-14T16:32:22.605Z,27.23
2019-04-14T16:34:57.491Z,27.07
2019-04-14T16:37:26.275Z,26.27
2019-04-14T16:39:54.543Z,26.13
2019-04-14T16:42:23.372Z,28.13
2019-04-14T16:44:52.555Z,24.83
2019-04-14T16:47:21.673Z,26.33
2019-04-14T16:49:50.472Z,28.37
2019-04-14T16:52:41.001Z,26.37
2019-04-14T16:55:29.706Z,27.27
2019-04-14T16:58:20.127Z,25.87
2019-04-14T17:00:56.861Z,26.50
2019-04-14T17:03:25.597Z,27.60
2019-04-14T17:05:54.315Z,23.87
2019-04-14T17:08:22.664Z,26.80
2019-04-14T17:10:51.425Z,27.40
2019-04-14T17:13:20.140Z,26.37
2019-04-14T17:16:06.840Z,26.60
2019-04-14T17:18:42.312Z,27.10
2019-04-14T17:21:33.036Z,26.20
2019-04-14T17:24:20.809Z,26.00
2019-04-14T17:27:04.165Z,25.27
2019-04-14T17:29:43.948Z,26.27
2019-04-14T17:32:46.957Z,27.63
2019-04-14T17:35:24.857Z,24.90
2019-04-14T17:37:58.142Z,27.87
2019-04-14T17:40:45.860Z,25.03
2019-04-14T17:43:19.594Z,26.00
2019-04-14T17:46:07.848Z,27.53
2019-04-14T17:49:01.673Z,27.90
2019-04-14T17:51:47.857Z,22.70
2019-04-14T17:54:34.002Z,25.30
2019-04-14T17:57:15.738Z,26.87
2019-04-14T18:00:18.980Z,26.67
2019-04-14T18:03:00.265Z,27.63
2019-04-14T18:05:46.345Z,29.27
2019-04-14T18:08:27.463Z,30.60
2019-04-14T18:11:23.113Z,27.90
2019-04-14T18:14:17.023Z,28.17
2019-04-14T18:17:04.775Z,28.87
2019-04-14T18:19:58.913Z,29.73
2019-04-14T18:22:27.637Z,28.50
2019-04-14T18:24:56.332Z,27.73
2019-04-14T18:27:24.691Z,29.20
2019-04-14T18:30:01.119Z,30.00
2019-04-14T18:33:04.216Z,30.17
2019-04-14T18:35:38.035Z,30.43
2019-04-14T18:38:24.937Z,28.87
2019-04-14T18:41:18.950Z,31.80
2019-04-14T18:44:09.558Z,29.83
2019-04-14T18:46:50.441Z,31.60
2019-04-14T18:49:31.987Z,29.30
2019-04-14T18:52:10.412Z,29.50
2019-04-14T18:54:54.437Z,28.33
2019-04-14T18:57:28.583Z,28.57
2019-04-14T19:00:22.434Z,31.60
2019-04-14T19:02:51.104Z,35.50
2019-04-14T19:05:20.038Z,32.80
2019-04-14T19:07:48.797Z,29.47
2019-04-14T19:10:17.910Z,28.47
2019-04-14T19:12:58.438Z,25.73
2019-04-14T19:15:46.272Z,30.43
2019-04-14T19:18:32.823Z,28.17
2019-04-14T19:21:04.361Z,31.07
2019-04-14T19:23:33.196Z,32.10
2019-04-14T19:26:02.070Z,27.17
2019-04-14T19:28:30.494Z,29.90
2019-04-14T19:31:00.037Z,31.47
2019-04-14T19:33:28.768Z,31.23
2019-04-14T19:35:57.559Z,31.00
2019-04-14T19:38:26.332Z,31.70
2019-04-14T19:40:55.120Z,31.17
2019-04-14T19:43:24.379Z,31.87
2019-04-14T19:45:53.200Z,31.47
2019-04-14T19:48:21.593Z,29.57
2019-04-14T19:50:49.876Z,32.23
2019-04-14T19:53:18.734Z,33.20
2019-04-14T19:55:47.489Z,33.07
2019-04-14T19:58:16.234Z,31.37
2019-04-14T20:00:44.939Z,32.63
2019-04-14T20:03:13.619Z,31.80
2019-04-14T20:05:42.332Z,31.43
2019-04-14T20:08:10.987Z,31.57
2019-04-14T20:10:39.424Z,28.93
2019-04-14T20:13:08.512Z,32.50
2019-04-14T20:15:48.592Z,32.90
2019-04-14T20:18:42.703Z,33.00
2019-04-14T20:21:22.456Z,35.87
2019-04-14T20:24:00.313Z,33.67
2019-04-14T20:27:00.492Z,34.57
2019-04-14T20:29:32.480Z,35.90
2019-04-14T20:32:11.768Z,33.10
2019-04-14T20:34:40.165Z,32.87
2019-04-14T20:37:08.912Z,35.10
2019-04-14T20:39:38.008Z,35.03
2019-04-14T20:42:08.213Z,35.93
2019-04-14T20:44:37.029Z,35.77
2019-04-14T20:47:08.352Z,35.50
2019-04-14T20:49:37.322Z,35.63
2019-04-14T20:52:05.991Z,35.00
2019-04-14T20:54:34.652Z,36.90
2019-04-14T20:57:02.991Z,32.97
2019-04-14T20:59:31.658Z,37.87
2019-04-14T21:02:07.755Z,37.67
2019-04-14T21:04:58.283Z,36.87
2019-04-14T21:07:41.576Z,35.33
2019-04-14T21:10:26.489Z,35.37
2019-04-14T21:13:14.410Z,36.17
2019-04-14T21:15:50.361Z,36.87
2019-04-14T21:18:37.255Z,34.00
2019-04-14T21:21:34.121Z,30.00
2019-04-14T21:24:22.174Z,31.57
2019-04-14T21:27:08.036Z,36.30
2019-04-14T21:29:49.443Z,35.73
2019-04-14T21:32:29.808Z,38.20
2019-04-14T21:35:10.835Z,35.70
2019-04-14T21:38:10.234Z,34.47
2019-04-14T21:40:56.136Z,35.63
2019-04-14T21:43:25.968Z,35.77
2019-04-14T21:45:55.606Z,36.33
2019-04-14T21:48:31.881Z,37.37
2019-04-14T21:51:04.402Z,35.50
2019-04-14T21:53:33.693Z,31.57
2019-04-14T21:56:12.819Z,35.13
2019-04-14T21:58:46.412Z,38.40
2019-04-14T22:01:50.980Z,36.83
2019-04-14T22:04:51.625Z,37.33
2019-04-14T22:07:38.376Z,37.00
2019-04-14T22:10:17.954Z,37.50
2019-04-14T22:12:47.920Z,37.37
2019-04-14T22:15:17.014Z,35.87
2019-04-14T22:17:45.962Z,36.10
2019-04-14T22:20:15.272Z,35.70
2019-04-14T22:22:45.081Z,34.00
2019-04-14T22:25:14.314Z,31.40
2019-04-14T22:27:42.953Z,34.73
2019-04-14T22:30:21.108Z,37.13
2019-04-14T22:32:49.877Z,39.23
2019-04-14T22:35:18.868Z,36.07
2019-04-14T22:37:48.329Z,36.70
2019-04-14T22:40:19.506Z,38.80
2019-04-14T22:42:48.576Z,36.83
2019-04-14T22:45:18.075Z,34.83
2019-04-14T22:50:24.725Z,33.57
2019-04-14T22:52:55.477Z,36.43
2019-04-14T22:55:25.355Z,35.70
2019-04-14T22:57:53.847Z,39.80
2019-04-14T23:00:38.176Z,36.90
2019-04-14T23:03:19.739Z,38.30
2019-04-14T23:06:02.115Z,38.20
2019-04-14T23:08:47.640Z,37.57
2019-04-14T23:11:34.279Z,35.23
2019-04-14T23:14:17.302Z,38.80
2019-04-14T23:17:17.394Z,36.33
2019-04-14T23:19:56.675Z,37.23
2019-04-14T23:22:33.426Z,33.10
2019-04-14T23:25:02.489Z,39.30
2019-04-14T23:27:31.575Z,39.80
2019-04-14T23:30:01.033Z,38.17
2019-04-14T23:32:29.952Z,39.00
2019-04-14T23:34:59.464Z,36.17
2019-04-14T23:37:29.948Z,38.80
2019-04-14T23:40:02.038Z,40.47
2019-04-14T23:42:31.139Z,36.57
2019-04-14T23:44:59.791Z,32.80
2019-04-14T23:47:28.571Z,37.93
2019-04-14T23:49:57.689Z,38.80
2019-04-14T23:52:26.761Z,38.67
2019-04-14T23:54:55.955Z,34.90
2019-04-14T23:57:24.908Z,36.87
2019-04-14T23:59:54.237Z,38.90
